Time;durP1;ratioP1;P1;durP2;ratioP2;P2;SDS_P1;SDS_P2;PMS_P1;PMS_P2;Temp;Humidity;BMP_temperature;BMP_pressure;BME280_temperature;BME280_humidity;BME280_pressure;Samples;Min_cycle;Max_cycle;Signal;HPM_P1;HPM_P2
2023/11/08 00:00:13;;;;;;;0.60;0.60;;;;;;;;;;5066573;28;20032;-87
2023/11/08 00:02:39;;;;;;;0.80;0.70;;;;;;;;;;5075896;28;20031;-87
2023/11/08 00:05:06;;;;;;;0.60;0.60;;;;;;;;;;5057216;28;20023;-84
2023/11/08 00:07:32;;;;;;;0.75;0.75;;;;;;;;;;5057248;28;20103;-83
2023/11/08 00:09:58;;;;;;;0.80;0.80;;;;;;;;;;5075193;28;20501;-85
2023/11/08 00:12:24;;;;;;;0.60;0.60;;;;;;;;;;5057150;28;20112;-84
2023/11/08 00:14:51;;;;;;;0.60;0.60;;;;;;;;;;5056329;28;20478;-87
2023/11/08 00:17:17;;;;;;;0.70;0.70;;;;;;;;;;5057351;28;20028;-88
2023/11/08 00:19:43;;;;;;;0.70;0.70;;;384.90;2329.60;;;;;;5057016;28;20099;-85
2023/11/08 00:22:09;;;;;;;0.70;0.70;;;384.70;2329.60;;;;;;5075136;28;20029;-87
2023/11/08 00:24:34;;;;;;;0.60;0.60;;;384.60;2329.60;;;;;;5075193;28;20523;-89
2023/11/08 00:27:00;;;;;;;0.60;0.60;;;384.60;2329.60;;;;;;5056919;28;20029;-84
2023/11/08 00:29:26;;;;;;;0.60;0.60;;;384.60;2329.60;;;;;;5057103;28;20045;-84
2023/11/08 00:31:52;;;;;;;0.60;0.60;;;384.60;2329.60;;;;;;5057334;28;20090;-86
2023/11/08 00:34:19;;;;;;;0.63;0.63;;;384.60;2329.60;;;;;;5074582;28;20027;-85
2023/11/08 00:36:45;;;;;;;1.02;0.85;;;384.60;2329.60;;;;;;5057170;28;20025;-85
2023/11/08 00:39:11;;;;;;;0.60;0.60;;;384.60;2329.60;;;;;;5057195;28;20105;-84
2023/11/08 00:41:37;;;;;;;0.63;0.63;;;384.70;2329.60;;;;;;5074744;28;20051;-86
2023/11/08 00:44:03;;;;;;;0.70;0.60;;;384.70;2329.60;;;;;;5074823;28;20020;-87
2023/11/08 00:46:29;;;;;;;0.70;0.70;;;384.70;2329.60;;;;;;5056848;28;20070;-84
2023/11/08 00:48:54;;;;;;;0.90;0.90;;;384.80;2329.60;;;;;;5056427;28;20064;-86
2023/11/08 00:51:20;;;;;;;1.35;0.80;;;384.80;2329.60;;;;;;5056776;28;20031;-85
2023/11/08 00:53:49;;;;;;;0.60;0.60;;;384.70;2329.60;;;;;;5056745;28;20484;-85
2023/11/08 00:56:16;;;;;;;0.63;0.63;;;384.70;2329.60;;;;;;5056167;28;20052;-85
2023/11/08 00:58:42;;;;;;;0.50;0.50;;;384.70;2329.60;;;;;;5074875;28;20506;-84
2023/11/08 01:01:07;;;;;;;0.77;0.77;;;384.70;2329.60;;;;;;5056602;28;20088;-87
2023/11/08 01:03:33;;;;;;;0.60;0.60;;;384.60;2329.60;;;;;;5056514;28;20034;-87
2023/11/08 01:05:59;;;;;;;0.70;0.70;;;384.60;2329.60;;;;;;5056419;28;20024;-86
2023/11/08 01:08:25;;;;;;;0.77;0.70;;;384.60;2329.60;;;;;;5074451;28;20024;-86
2023/11/08 01:10:53;;;;;;;1.10;1.00;;;384.50;2329.60;;;;;;5056671;28;20056;-85
2023/11/08 01:13:20;;;;;;;1.63;0.95;;;384.60;2329.60;;;;;;5063340;28;20014;-85
2023/11/08 01:15:46;;;;;;;0.73;0.70;;;384.50;2329.60;;;;;;5098434;28;20010;-85
2023/11/08 01:18:12;;;;;;;0.60;0.60;;;384.50;2329.60;;;;;;5057863;28;20048;-86
2023/11/08 01:20:38;;;;;;;0.73;0.73;;;384.40;2329.60;;;;;;5057540;28;20031;-86
2023/11/08 01:23:04;;;;;;;2.90;1.10;;;384.50;2329.60;;;;;;5056181;28;20060;-88
2023/11/08 01:25:30;;;;;;;1.00;0.90;;;384.50;2329.60;;;;;;5073976;28;20406;-84
2023/11/08 01:27:56;;;;;;;0.80;0.80;;;384.40;2329.60;;;;;;5056158;28;20028;-86
2023/11/08 01:30:22;;;;;;;0.88;0.80;;;;;;;;;;5055920;28;20436;-87
2023/11/08 01:32:49;;;;;;;0.60;0.60;;;;;;;;;;5056349;28;20055;-86
2023/11/08 01:35:15;;;;;;;0.70;0.63;;;;;;;;;;5056182;28;20033;-86
2023/11/08 01:37:41;;;;;;;0.80;0.70;;;;;;;;;;5056139;28;20021;-84
2023/11/08 01:40:08;;;;;;;0.60;0.60;;;;;;;;;;5056633;28;20028;-86
2023/11/08 01:42:34;;;;;;;1.05;0.80;;;;;;;;;;5074182;28;20025;-87
2023/11/08 01:45:04;;;;;;;1.80;1.23;;;;;;;;;;5055563;28;20489;-87
2023/11/08 01:47:33;;;;;;;1.25;0.95;;;;;;;;;;5056448;28;20459;-86
2023/11/08 01:50:01;;;;;;;1.13;0.70;;;;;;;;;;5055748;28;20466;-85
2023/11/08 01:52:27;;;;;;;1.83;1.00;;;;;;;;;;5056608;28;20043;-86
2023/11/08 01:54:54;;;;;;;1.20;1.00;;;;;;;;;;5055707;28;20078;-85
2023/11/08 01:57:23;;;;;;;0.90;0.75;;;;;;;;;;5055773;28;20028;-86
2023/11/08 01:59:54;;;;;;;0.82;0.70;;;;;;;;;;5056068;28;20024;-88
2023/11/08 02:02:20;;;;;;;0.82;0.75;;;;;;;;;;5055576;28;20056;-84
2023/11/08 02:04:49;;;;;;;1.50;1.00;;;384.30;2329.60;;;;;;5055820;28;20024;-87
2023/11/08 02:07:15;;;;;;;0.65;0.65;;;384.10;2329.60;;;;;;5056428;28;20025;-84
2023/11/08 02:09:41;;;;;;;0.88;0.88;;;384.10;2329.60;;;;;;5055601;28;20037;-85
2023/11/08 02:12:07;;;;;;;0.65;0.65;;;384.10;2329.60;;;;;;5055468;28;20107;-85
2023/11/08 02:14:33;;;;;;;0.60;0.60;;;384.10;2329.60;;;;;;5056383;28;20355;-85
2023/11/08 02:17:00;;;;;;;0.93;0.80;;;384.20;2329.60;;;;;;5055696;28;20031;-86
2023/11/08 02:19:26;;;;;;;1.27;1.17;;;384.10;2329.60;;;;;;5055213;28;20078;-86
2023/11/08 02:21:52;;;;;;;0.70;0.70;;;384.00;2329.60;;;;;;5055433;28;20103;-86
2023/11/08 02:24:22;;;;;;;1.33;0.90;;;359.30;2329.60;;;;;;5073344;28;20050;-87
2023/11/08 02:26:50;;;;;;;0.70;0.70;;;359.20;2329.60;;;;;;5073132;28;20031;-86
2023/11/08 02:29:17;;;;;;;0.70;0.70;;;384.00;2329.60;;;;;;5055566;28;20043;-87
2023/11/08 02:31:52;;;;;;;0.68;0.68;;;384.10;2329.60;;;;;;5055393;28;20029;-87
2023/11/08 02:34:18;;;;;;;0.77;0.70;;;384.00;2329.60;;;;;;5055306;28;20021;-84
2023/11/08 02:36:44;;;;;;;0.88;0.88;;;384.00;2329.60;;;;;;5055931;28;20032;-85
2023/11/08 02:39:10;;;;;;;0.60;0.60;;;384.10;2329.60;;;;;;5075301;28;20432;-85
2023/11/08 02:41:36;;;;;;;0.82;0.82;;;384.10;2329.60;;;;;;5059266;28;20021;-86
2023/11/08 02:44:02;;;;;;;0.68;0.68;;;384.00;2329.60;;;;;;5060036;28;20418;-85
2023/11/08 02:46:28;;;;;;;0.70;0.70;;;384.10;2329.60;;;;;;5058618;28;20064;-85
2023/11/08 02:48:57;;;;;;;1.35;0.90;;;384.10;2329.60;;;;;;5059018;28;20036;-86
2023/11/08 02:51:28;;;;;;;0.77;0.70;;;384.00;2329.60;;;;;;5059567;28;20028;-85
2023/11/08 02:53:54;;;;;;;0.60;0.60;;;384.10;2329.60;;;;;;5076312;28;20058;-85
2023/11/08 02:56:20;;;;;;;0.70;0.70;;;384.30;281.60;;;;;;5055712;28;20067;-87
2023/11/08 02:58:46;;;;;;;0.60;0.60;;;384.20;2329.60;;;;;;5056474;28;20059;-86
2023/11/08 03:01:11;;;;;;;1.17;1.08;;;384.30;2329.60;;;;;;5055189;28;20029;-86
2023/11/08 03:03:37;;;;;;;0.70;0.70;;;384.30;2329.60;;;;;;5055393;28;20052;-84
2023/11/08 03:06:03;;;;;;;0.60;0.60;;;384.30;2329.60;;;;;;5054960;28;20100;-83
2023/11/08 03:08:29;;;;;;;0.50;0.50;;;384.40;2329.60;;;;;;5056705;28;20063;-83
2023/11/08 03:10:55;;;;;;;0.60;0.60;;;384.30;2329.60;;;;;;5058222;28;20108;-88
2023/11/08 03:13:21;;;;;;;0.50;0.50;;;384.10;2329.60;;;;;;5055628;28;20020;-83
2023/11/08 03:15:47;;;;;;;0.70;0.70;;;384.00;2329.60;;;;;;5055673;28;20027;-84
2023/11/08 03:18:12;;;;;;;0.82;0.82;;;359.20;2329.60;;;;;;5055269;28;20025;-85
2023/11/08 03:20:38;;;;;;;0.60;0.60;;;359.30;2329.60;;;;;;5056116;28;20079;-88
2023/11/08 03:23:05;;;;;;;0.60;0.60;;;359.10;2329.60;;;;;;5054660;28;20033;-82
2023/11/08 03:25:30;;;;;;;1.45;0.80;;;359.20;2329.60;;;;;;5054755;28;20025;-85
2023/11/08 03:27:56;;;;;;;0.60;0.60;;;359.20;2329.60;;;;;;5055874;28;20184;-85
2023/11/08 03:30:22;;;;;;;0.60;0.60;;;359.20;2329.60;;;;;;5056272;28;20055;-84
2023/11/08 03:32:49;;;;;;;0.70;0.70;;;359.30;2329.60;;;;;;5054737;28;20377;-82
2023/11/08 03:35:15;;;;;;;0.60;0.60;;;359.20;2329.60;;;;;;5054941;28;20033;-83
2023/11/08 03:37:45;;;;;;;0.60;0.60;;;359.20;2329.60;;;;;;5054639;28;20074;-83
2023/11/08 03:40:11;;;;;;;0.60;0.60;;;;;;;;;;5055042;28;20106;-84
2023/11/08 03:42:41;;;;;;;0.60;0.60;;;;;;;;;;5054110;28;20565;-83
2023/11/08 03:45:08;;;;;;;0.70;0.70;;;;;;;;;;5055034;28;20379;-81
2023/11/08 03:47:36;;;;;;;0.65;0.65;;;;;;;;;;5054386;28;20021;-82
2023/11/08 03:50:02;;;;;;;0.65;0.65;;;;;;;;;;5053712;28;20075;-83
2023/11/08 03:52:28;;;;;;;0.60;0.60;;;;;;;;;;5054192;28;20021;-82
2023/11/08 03:54:55;;;;;;;0.73;0.73;;;;;;;;;;5060839;28;20056;-80
2023/11/08 03:57:21;;;;;;;0.60;0.60;;;;;;;;;;5074931;28;20120;-84
2023/11/08 03:59:49;;;;;;;0.60;0.60;;;;;;;;;;5057545;28;20107;-82
2023/11/08 04:02:17;;;;;;;0.60;0.60;;;384.30;2329.60;;;;;;5057414;28;20102;-83
2023/11/08 04:04:45;;;;;;;0.77;0.77;;;384.10;2329.60;;;;;;5075270;28;20094;-81
2023/11/08 04:07:11;;;;;;;0.60;0.60;;;384.00;2329.60;;;;;;5057375;28;20028;-84
2023/11/08 04:09:36;;;;;;;0.80;0.70;;;359.30;2329.60;;;;;;5075456;28;20032;-83
2023/11/08 04:12:02;;;;;;;0.60;0.60;;;359.30;2329.60;;;;;;5056916;28;20390;-83
2023/11/08 04:14:28;;;;;;;0.60;0.60;;;359.10;2329.60;;;;;;5057752;28;20043;-85
2023/11/08 04:16:54;;;;;;;0.70;0.70;;;359.20;2329.60;;;;;;5057899;28;20520;-85
2023/11/08 04:19:21;;;;;;;0.60;0.60;;;359.20;2329.60;;;;;;5059206;28;20048;-81
2023/11/08 04:21:48;;;;;;;0.70;0.70;;;384.00;2329.60;;;;;;5085360;28;20032;-79
2023/11/08 04:24:13;;;;;;;0.50;0.50;;;359.30;2329.60;;;;;;5093963;28;20025;-79
2023/11/08 04:26:40;;;;;;;0.60;0.60;;;359.30;2329.60;;;;;;5058099;28;20036;-84
2023/11/08 04:29:05;;;;;;;0.60;0.60;;;359.10;2329.60;;;;;;5075890;28;20468;-82
2023/11/08 04:31:32;;;;;;;0.60;0.60;;;359.00;2022.40;;;;;;5075472;28;20024;-81
2023/11/08 04:33:58;;;;;;;0.60;0.60;;;359.00;2329.60;;;;;;5074965;28;20024;-84
2023/11/08 04:36:26;;;;;;;0.70;0.60;;;359.00;2329.60;;;;;;5057295;28;20351;-82
2023/11/08 04:38:53;;;;;;;0.60;0.60;;;359.00;2329.60;;;;;;5056611;28;20175;-83
2023/11/08 04:41:20;;;;;;;0.70;0.70;;;359.00;2329.60;;;;;;5056748;28;20032;-83
2023/11/08 04:43:47;;;;;;;0.82;0.68;;;359.00;2329.60;;;;;;5057338;28;20029;-82
2023/11/08 04:46:17;;;;;;;0.57;0.57;;;359.10;2329.60;;;;;;5056307;28;20115;-83
2023/11/08 04:48:45;;;;;;;0.60;0.60;;;359.10;2329.60;;;;;;5056634;28;20040;-83
2023/11/08 04:51:11;;;;;;;0.80;0.80;;;359.10;2329.60;;;;;;5057895;28;20025;-81
2023/11/08 04:53:37;;;;;;;0.70;0.70;;;359.10;2329.60;;;;;;5056674;28;20393;-80
2023/11/08 04:56:04;;;;;;;0.50;0.50;;;359.10;2329.60;;;;;;5056563;28;20052;-81
2023/11/08 04:58:31;;;;;;;0.80;0.80;;;359.10;2329.60;;;;;;5057593;28;20458;-82
2023/11/08 05:00:56;;;;;;;0.65;0.65;;;359.00;2329.60;;;;;;5056194;28;20115;-85
2023/11/08 05:03:22;;;;;;;0.75;0.70;;;359.10;2329.60;;;;;;5074675;28;20059;-83
2023/11/08 05:05:48;;;;;;;0.60;0.60;;;358.90;2329.60;;;;;;5057141;28;20058;-82
2023/11/08 05:08:14;;;;;;;0.65;0.60;;;359.10;2329.60;;;;;;5056033;28;20546;-81
2023/11/08 05:10:40;;;;;;;0.77;0.70;;;359.00;2252.80;;;;;;5077626;28;20499;-81
2023/11/08 05:13:06;;;;;;;1.17;0.90;;;359.00;2329.60;;;;;;5064213;28;20103;-83
2023/11/08 05:15:32;;;;;;;0.60;0.60;;;359.10;2329.60;;;;;;5056311;28;20025;-85
2023/11/08 05:17:58;;;;;;;0.75;0.63;;;359.10;2329.60;;;;;;5039377;28;20537;-85
2023/11/08 05:20:26;;;;;;;0.60;0.60;;;;;;;;;;5074057;28;20043;-85
2023/11/08 05:22:55;;;;;;;0.65;0.65;;;;;;;;;;5055832;28;20529;-83
2023/11/08 05:25:22;;;;;;;1.17;0.85;;;;;;;;;;5073813;28;20104;-82
2023/11/08 05:27:48;;;;;;;0.90;0.80;;;;;;;;;;5055759;28;20107;-82
2023/11/08 05:30:16;;;;;;;0.60;0.60;;;;;;;;;;5074119;28;20025;-84
2023/11/08 05:32:43;;;;;;;0.80;0.70;;;;;;;;;;5055892;28;20382;-85
2023/11/08 05:35:12;;;;;;;0.75;0.70;;;;;;;;;;5073678;28;20028;-83
2023/11/08 05:37:39;;;;;;;1.08;1.02;;;;;;;;;;5074089;28;20061;-83
2023/11/08 05:40:09;;;;;;;0.68;0.65;;;;;;;;;;5056658;28;20365;-84
2023/11/08 05:42:35;;;;;;;0.90;0.70;;;;;;;;;;5073414;28;20020;-81
2023/11/08 05:45:01;;;;;;;0.90;0.80;;;;;;;;;;5073798;28;20126;-82
2023/11/08 05:47:27;;;;;;;1.08;0.90;;;;;;;;;;5056558;28;20028;-79
2023/11/08 05:49:54;;;;;;;0.60;0.60;;;;;;;;;;5073356;28;20057;-82
2023/11/08 05:52:20;;;;;;;0.65;0.60;;;;;;;;;;5073867;28;20025;-79
2023/11/08 05:54:46;;;;;;;0.95;0.80;;;;;;;;;;5052143;28;20143;-79
2023/11/08 05:57:14;;;;;;;0.60;0.60;;;;;;;;;;5053264;28;20470;-81
2023/11/08 05:59:42;;;;;;;0.77;0.70;;;;;;;;;;5052506;28;20025;-81
2023/11/08 06:02:09;;;;;;;0.88;0.85;;;;;;;;;;5053622;28;20022;-81
2023/11/08 06:04:35;;;;;;;0.80;0.70;;;;;;;;;;5052472;28;20036;-82
2023/11/08 06:07:01;;;;;;;0.75;0.65;;;;;;;;;;5053557;28;20021;-82
2023/11/08 06:09:27;;;;;;;0.70;0.60;;;;;;;;;;5052140;28;20025;-82
2023/11/08 06:11:54;;;;;;;0.85;0.70;;;;;;;;;;5053667;28;20374;-81
2023/11/08 06:14:20;;;;;;;0.60;0.60;;;;;;;;;;5055095;28;20021;-82
2023/11/08 06:16:47;;;;;;;0.63;0.60;;;;;;;;;;5057282;28;20033;-82
2023/11/08 06:19:13;;;;;;;1.55;1.10;;;;;;;;;;5056980;28;20470;-84
2023/11/08 06:21:39;;;;;;;0.60;0.60;;;;;;;;;;5056453;28;20032;-82
2023/11/08 06:24:06;;;;;;;1.20;0.90;;;;;;;;;;5057127;28;20025;-81
2023/11/08 06:26:32;;;;;;;0.93;0.73;;;;;;;;;;5039736;28;20136;-81
2023/11/08 06:28:58;;;;;;;1.02;0.77;;;;;;;;;;5055919;28;20041;-80
2023/11/08 06:31:24;;;;;;;1.63;0.80;;;;;;;;;;5056660;28;20028;-81
2023/11/08 06:33:50;;;;;;;0.60;0.60;;;;;;;;;;5056011;28;20017;-84
2023/11/08 06:36:17;;;;;;;0.50;0.50;;;;;;;;;;5055904;28;20466;-82
2023/11/08 06:38:43;;;;;;;0.85;0.70;;;;;;;;;;5055456;28;20108;-85
2023/11/08 06:41:09;;;;;;;1.38;0.95;;;;;;;;;;5058819;28;20020;-84
2023/11/08 06:43:36;;;;;;;1.55;1.17;;;;;;;;;;5058939;28;20044;-87
2023/11/08 06:46:02;;;;;;;2.58;1.27;;;;;;;;;;5058749;28;20036;-83
2023/11/08 06:48:28;;;;;;;0.75;0.75;;;;;;;;;;5058713;28;20025;-84
2023/11/08 06:50:54;;;;;;;1.38;1.23;;;;;;;;;;5059438;28;20351;-81
2023/11/08 06:53:20;;;;;;;1.77;0.90;;;;;;;;;;5058893;28;20428;-82
2023/11/08 06:55:46;;;;;;;0.77;0.70;;;;;;;;;;5058554;28;20044;-85
2023/11/08 06:58:16;;;;;;;0.73;0.73;;;;;;;;;;5058233;28;20052;-84
2023/11/08 07:00:42;;;;;;;0.93;0.80;;;;;;;;;;5058889;28;20095;-85
2023/11/08 07:03:09;;;;;;;0.85;0.70;;;;;;;;;;5076360;28;20012;-85
2023/11/08 07:05:35;;;;;;;0.70;0.70;;;;;;;;;;5059019;28;20021;-86
2023/11/08 07:08:01;;;;;;;0.73;0.73;;;358.60;2329.60;;;;;;5058748;28;20025;-84
2023/11/08 07:10:27;;;;;;;1.55;1.45;;;358.60;2329.60;;;;;;5058524;28;20036;-89
2023/11/08 07:12:53;;;;;;;0.90;0.70;;;333.70;2329.60;;;;;;5058653;28;20021;-86
2023/11/08 07:15:23;;;;;;;0.70;0.70;;;333.70;2329.60;;;;;;5058986;28;20446;-85
2023/11/08 07:17:49;;;;;;;0.80;0.70;;;333.50;2329.60;;;;;;5058382;28;20496;-87
2023/11/08 07:20:43;;;;;;;0.73;0.63;;;333.50;2329.60;;;;;;5057038;28;20025;-88
2023/11/08 07:23:08;;;;;;;0.70;0.70;;;333.50;2329.60;;;;;;5074725;28;20032;-85
2023/11/08 07:25:37;;;;;;;1.42;1.00;;;333.50;2329.60;;;;;;5060673;28;20028;-84
2023/11/08 07:28:05;;;;;;;0.88;0.73;;;333.60;2329.60;;;;;;5058018;28;20016;-86
2023/11/08 07:30:31;;;;;;;0.85;0.70;;;333.50;2329.60;;;;;;5057784;28;20032;-86
2023/11/08 07:32:57;;;;;;;0.70;0.60;;;333.40;2329.60;;;;;;5074220;28;20470;-87
2023/11/08 07:35:26;;;;;;;0.43;0.43;;;333.40;2329.60;;;;;;5058120;28;20025;-87
2023/11/08 07:37:52;;;;;;;1.42;1.33;;;;;;;;;;5058130;28;20052;-84
2023/11/08 07:40:21;;;;;;;1.02;0.80;;;333.40;2329.60;;;;;;5075480;28;20024;-86
2023/11/08 07:42:47;;;;;;;0.85;0.63;;;333.30;2329.60;;;;;;5014557;28;20096;-87
2023/11/08 07:45:16;;;;;;;0.73;0.60;;;;;;;;;;5014343;28;20042;-87
2023/11/08 07:47:45;;;;;;;0.85;0.75;;;333.50;2329.60;;;;;;5016876;28;20038;-87
2023/11/08 07:50:11;;;;;;;0.80;0.70;;;333.30;2329.60;;;;;;5023568;28;20081;-84
2023/11/08 07:52:38;;;;;;;0.90;0.70;;;333.20;2329.60;;;;;;5019255;28;20108;-85
2023/11/08 07:55:05;;;;;;;1.02;0.70;;;333.20;2329.60;;;;;;5015836;28;20502;-86
2023/11/08 07:57:31;;;;;;;0.60;0.60;;;;;;;;;;5015465;28;20132;-89
2023/11/08 08:00:03;;;;;;;0.60;0.60;;;;;;;;;;5014015;28;20060;-87
2023/11/08 08:02:32;;;;;;;0.80;0.70;;;;;;;;;;5013651;28;20096;-85
2023/11/08 08:05:01;;;;;;;0.80;0.70;;;;;;;;;;5013152;28;20105;-86
2023/11/08 08:07:27;;;;;;;1.10;0.80;;;;;;;;;;5013396;28;20022;-86
2023/11/08 08:09:54;;;;;;;1.08;0.82;;;333.60;2329.60;;;;;;5013442;28;20030;-84
2023/11/08 08:12:20;;;;;;;1.13;0.80;;;;;;;;;;5013380;28;20092;-88
2023/11/08 08:14:52;;;;;;;0.60;0.60;;;333.70;2329.60;;;;;;5054195;28;20389;-86
2023/11/08 08:17:21;;;;;;;0.70;0.60;;;333.40;2329.60;;;;;;5057119;28;20032;-86
2023/11/08 08:19:47;;;;;;;1.00;0.70;;;333.50;2329.60;;;;;;5056800;28;20051;-86
2023/11/08 08:22:14;;;;;;;1.02;0.90;;;333.40;2329.60;;;;;;5074983;28;20117;-87
2023/11/08 08:24:43;;;;;;;0.80;0.73;;;333.40;2329.60;;;;;;5075421;28;20135;-86
2023/11/08 08:27:14;;;;;;;0.60;0.60;;;333.40;2329.60;;;;;;5074929;28;20077;-85
2023/11/08 08:29:41;;;;;;;0.70;0.60;;;333.40;2329.60;;;;;;5074981;28;20028;-84
2023/11/08 08:32:10;;;;;;;0.77;0.70;;;333.30;2329.60;;;;;;5057149;28;20048;-85
2023/11/08 08:34:44;;;;;;;2.25;0.80;;;333.20;2329.60;;;;;;5056890;28;20032;-87
2023/11/08 08:37:16;;;;;;;0.65;0.63;;;333.30;2329.60;;;;;;5056621;28;20032;-86
2023/11/08 08:39:52;;;;;;;0.60;0.60;;;333.30;2329.60;;;;;;5056539;28;20111;-87
2023/11/08 08:42:23;;;;;;;0.80;0.70;;;333.20;2329.60;;;;;;5057085;28;20474;-87
2023/11/08 08:45:09;;;;;;;1.52;1.10;;;333.30;2329.60;;;;;;5056525;28;20049;-85
2023/11/08 08:47:39;;;;;;;1.17;0.88;;;333.40;2329.60;;;;;;5056343;28;20083;-85
2023/11/08 08:50:19;;;;;;;1.63;1.15;;;333.40;2329.60;;;;;;5056701;28;20028;-88
2023/11/08 08:52:45;;;;;;;0.70;0.70;;;333.40;2329.60;;;;;;5056653;28;20025;-87
2023/11/08 08:55:15;;;;;;;0.70;0.60;;;333.30;2329.60;;;;;;5052740;28;20544;-88
2023/11/08 08:57:49;;;;;;;1.20;0.80;;;333.30;2329.60;;;;;;5053251;28;20029;-86
2023/11/08 09:00:22;;;;;;;0.60;0.60;;;333.60;2329.60;;;;;;5054404;28;20549;-86
2023/11/08 09:02:49;;;;;;;0.57;0.57;;;333.30;2329.60;;;;;;5054113;28;20475;-84
2023/11/08 09:05:20;;;;;;;0.95;0.75;;;333.00;2329.60;;;;;;5069900;28;20458;-88
2023/11/08 09:07:47;;;;;;;0.98;0.77;;;333.20;2329.60;;;;;;5052970;28;20021;-87
2023/11/08 09:10:16;;;;;;;0.70;0.70;;;333.20;2329.60;;;;;;5053174;28;20036;-87
2023/11/08 09:12:48;;;;;;;0.60;0.60;;;333.00;2329.60;;;;;;5053044;28;20433;-85
2023/11/08 09:15:14;;;;;;;0.50;0.50;;;333.20;2329.60;;;;;;5053285;28;20452;-87
2023/11/08 09:17:40;;;;;;;1.10;0.70;;;333.10;2329.60;;;;;;5053407;28;20033;-85
2023/11/08 09:20:10;;;;;;;1.13;1.00;;;333.20;2329.60;;;;;;5053008;28;20485;-88
2023/11/08 09:22:40;;;;;;;0.75;0.70;;;333.20;2329.60;;;;;;5053084;28;20025;-88
2023/11/08 09:25:10;;;;;;;0.95;0.75;;;333.20;2329.60;;;;;;5052998;28;20078;-85
2023/11/08 09:27:38;;;;;;;0.80;0.73;;;333.20;2329.60;;;;;;5053918;28;20032;-88
2023/11/08 09:30:07;;;;;;;0.88;0.80;;;333.30;2329.60;;;;;;5052921;28;20037;-87
2023/11/08 09:32:33;;;;;;;1.00;0.70;;;333.30;2329.60;;;;;;5036589;28;20051;-87
2023/11/08 09:34:59;;;;;;;0.70;0.70;;;333.30;2329.60;;;;;;5055926;28;20033;-86
2023/11/08 09:37:24;;;;;;;0.80;0.70;;;333.20;2329.60;;;;;;5074553;28;20459;-84
2023/11/08 09:39:59;;;;;;;0.63;0.60;;;333.20;2329.60;;;;;;5055395;28;20036;-86
2023/11/08 09:42:29;;;;;;;0.60;0.60;;;333.20;2329.60;;;;;;5052564;28;20104;-86
2023/11/08 09:45:02;;;;;;;1.30;1.20;;;333.20;2329.60;;;;;;5052568;28;20250;-87
2023/11/08 09:47:28;;;;;;;0.85;0.70;;;333.20;2329.60;;;;;;5054746;28;20151;-84
2023/11/08 09:49:56;;;;;;;0.65;0.60;;;333.20;2329.60;;;;;;5056652;28;20127;-84
2023/11/08 09:52:22;;;;;;;0.70;0.60;;;333.20;2329.60;;;;;;5056097;28;20036;-83
2023/11/08 09:54:48;;;;;;;1.85;0.80;;;333.20;2329.60;;;;;;5055821;28;20029;-84
2023/11/08 09:57:17;;;;;;;1.45;0.95;;;333.20;2329.60;;;;;;5034960;28;20039;-85
2023/11/08 09:59:44;;;;;;;2.38;0.80;;;333.20;2329.60;;;;;;5039975;28;20029;-84
2023/11/08 10:02:16;;;;;;;0.73;0.70;;;333.30;2329.60;;;;;;5054252;28;20041;-85
2023/11/08 10:04:43;;;;;;;0.60;0.60;;;333.20;2329.60;;;;;;5058777;28;20028;-85
2023/11/08 10:07:09;;;;;;;0.52;0.52;;;333.20;2329.60;;;;;;5058942;28;20039;-84
2023/11/08 10:09:38;;;;;;;0.88;0.70;;;333.20;2329.60;;;;;;5059118;28;20029;-82
2023/11/08 10:12:06;;;;;;;0.80;0.70;;;333.20;2329.60;;;;;;5058906;28;20041;-85
2023/11/08 10:14:40;;;;;;;0.90;0.70;;;333.20;2329.60;;;;;;5059106;28;20092;-84
2023/11/08 10:17:06;;;;;;;0.60;0.60;;;333.20;2329.60;;;;;;5059371;28;20481;-85
2023/11/08 10:19:50;;;;;;;0.80;0.70;;;333.20;2329.60;;;;;;5076578;28;20063;-83
2023/11/08 10:22:23;;;;;;;0.75;0.70;;;333.20;2329.60;;;;;;5059679;28;20028;-85
2023/11/08 10:24:55;;;;;;;0.90;0.70;;;333.20;2329.60;;;;;;5041972;28;20127;-83
2023/11/08 10:27:21;;;;;;;0.80;0.70;;;333.20;2329.60;;;;;;5054877;28;20082;-87
2023/11/08 10:29:47;;;;;;;0.80;0.70;;;333.20;2329.60;;;;;;5076656;28;20432;-82
2023/11/08 10:32:22;;;;;;;0.75;0.70;;;333.20;2329.60;;;;;;5059253;28;20359;-84
2023/11/08 10:34:48;;;;;;;0.73;0.60;;;333.20;2329.60;;;;;;5058607;28;20115;-84
2023/11/08 10:37:28;;;;;;;0.70;0.70;;;333.30;2329.60;;;;;;5058854;28;20032;-83
2023/11/08 10:39:56;;;;;;;1.10;0.80;;;333.20;2329.60;;;;;;5058727;28;20051;-85
2023/11/08 10:42:24;;;;;;;0.85;0.75;;;333.20;2329.60;;;;;;5076553;28;20056;-83
2023/11/08 10:44:53;;;;;;;1.15;1.05;;;333.20;2329.60;;;;;;5058574;28;20024;-84
2023/11/08 10:47:23;;;;;;;0.70;0.70;;;333.30;2329.60;;;;;;5072645;28;20036;-86
2023/11/08 10:49:51;;;;;;;0.85;0.70;;;333.30;2329.60;;;;;;5058816;28;20029;-84
2023/11/08 10:52:25;;;;;;;0.73;0.60;;;333.20;2329.60;;;;;;5058568;28;20027;-83
2023/11/08 10:54:51;;;;;;;0.63;0.63;;;333.20;2329.60;;;;;;5057892;28;20095;-83
2023/11/08 10:57:21;;;;;;;0.60;0.60;;;333.20;2329.60;;;;;;5058570;28;20124;-83
2023/11/08 10:59:51;;;;;;;0.80;0.70;;;333.20;2329.60;;;;;;5074868;28;20043;-85
2023/11/08 11:02:28;;;;;;;0.60;0.60;;;333.20;2329.60;;;;;;5058289;28;20398;-82
2023/11/08 11:05:02;;;;;;;0.70;0.60;;;333.30;2329.60;;;;;;5058285;28;20390;-81
2023/11/08 11:07:32;;;;;;;1.40;1.00;;;333.30;2329.60;;;;;;5076025;28;20387;-85
2023/11/08 11:09:58;;;;;;;1.75;1.23;;;333.20;2329.60;;;;;;5058112;28;20115;-84
2023/11/08 11:12:48;;;;;;;0.88;0.70;;;333.30;2329.60;;;;;;5057661;28;20438;-83
2023/11/08 11:15:23;;;;;;;1.00;0.80;;;333.30;2329.60;;;;;;5075554;28;20021;-84
2023/11/08 11:17:55;;;;;;;1.25;1.02;;;333.30;2329.60;;;;;;5076196;28;20024;-83
2023/11/08 11:20:26;;;;;;;0.50;0.50;;;333.40;2329.60;;;;;;5076758;28;20086;-84
2023/11/08 11:22:52;;;;;;;0.80;0.70;;;333.40;2329.60;;;;;;5058543;28;20257;-81
2023/11/08 11:25:50;;;;;;;0.90;0.80;;;333.40;2329.60;;;;;;5057870;28;20111;-84
2023/11/08 11:28:57;;;;;;;0.88;0.70;;;333.40;2329.60;;;;;;5058044;28;20051;-84
2023/11/08 16:07:23;;;;;;;1.00;0.80;;;;;;;;;;5520922;23;20051;-89
2023/11/08 16:10:03;;;;;;;0.70;0.70;;;;;;;;;;4965163;29;20043;-88
2023/11/08 16:12:29;;;;;;;0.60;0.60;;;;;;;;;;4927845;29;20047;-84
2023/11/08 16:14:57;;;;;;;2.15;1.15;;;;;;;;;;4943266;29;20019;-85
2023/11/08 16:17:24;;;;;;;1.80;1.40;;;;;;;;;;4943674;29;20037;-86
2023/11/08 16:19:50;;;;;;;0.90;0.80;;;;;;;;;;4943526;29;20028;-85
2023/11/08 16:22:17;;;;;;;0.80;0.65;;;;;;;;;;4943389;29;20023;-87
2023/11/08 16:24:43;;;;;;;1.20;0.95;;;;;;;;;;4944493;29;20027;-88
2023/11/08 16:27:14;;;;;;;0.60;0.60;;;;;;;;;;4946782;29;20120;-91
2023/11/08 16:29:45;;;;;;;1.08;0.90;;;;;;;;;;4948564;29;20039;-89
2023/11/08 16:32:14;;;;;;;1.45;0.90;;;;;;;;;;4944404;29;20035;-89
2023/11/08 16:34:43;;;;;;;1.40;0.90;;;;;;;;;;4946469;29;20476;-89
2023/11/08 16:37:09;;;;;;;1.30;1.13;;;;;;;;;;4959217;29;20082;-89
2023/11/08 16:39:43;;;;;;;4.97;1.58;;;;;;;;;;4959034;29;20488;-90
2023/11/08 16:42:11;;;;;;;0.95;0.80;;;;;;;;;;4930224;29;20070;-90
2023/11/08 16:44:38;;;;;;;1.58;0.93;;;;;;;;;;4943003;29;20035;-86
2023/11/08 16:47:23;;;;;;;1.48;1.00;;;;;;;;;;4949795;29;20039;-89
2023/11/08 16:49:51;;;;;;;1.63;1.00;;;;;;;;;;4922254;29;20036;-88
2023/11/08 16:52:56;;;;;;;1.70;0.95;;;;;;;;;;4927784;29;20063;-89
2023/11/08 16:56:17;;;;;;;1.27;0.95;;;;;;;;;;4888568;29;20026;-89
2023/11/08 16:58:59;;;;;;;0.90;0.80;;;;;;;;;;4827823;29;20045;-85
2023/11/08 17:01:26;;;;;;;1.45;1.17;;;;;;;;;;4863882;29;20376;-85
2023/11/08 17:03:55;;;;;;;1.00;0.90;;;;;;;;;;4849564;29;20033;-89
2023/11/08 17:06:46;;;;;;;0.90;0.80;;;;;;;;;;4869657;29;20033;-88
2023/11/08 17:12:22;;;;;;;1.05;0.80;;;;;;;;;;4817533;29;20041;-87
2023/11/08 17:14:59;;;;;;;0.77;0.70;;;;;;;;;;4818922;29;20587;-87
2023/11/08 17:17:27;;;;;;;1.05;0.85;;;;;;;;;;4792820;29;20073;-83
2023/11/08 17:19:54;;;;;;;2.10;1.00;;;;;;;;;;4824284;29;20141;-87
2023/11/08 17:22:39;;;;;;;1.60;1.10;;;;;;;;;;4862557;29;20127;-87
2023/11/08 17:25:06;;;;;;;1.52;1.05;;;;;;;;;;4849970;29;20038;-88
2023/11/08 17:27:32;;;;;;;1.42;1.08;;;;;;;;;;4849495;29;20053;-88
2023/11/08 17:29:59;;;;;;;1.05;0.95;;;;;;;;;;4863113;29;20432;-88
2023/11/08 17:32:34;;;;;;;1.08;0.93;;;;;;;;;;4866899;29;20037;-85
2023/11/08 17:35:03;;;;;;;0.90;0.70;;;;;;;;;;4857178;29;20032;-84
2023/11/08 17:37:32;;;;;;;1.45;1.00;;;;;;;;;;4895384;29;20033;-83
2023/11/08 17:39:59;;;;;;;1.05;0.80;;;;;;;;;;4889929;29;20664;-83
2023/11/08 17:42:28;;;;;;;1.25;1.02;;;;;;;;;;4890696;29;20071;-87
2023/11/08 17:44:54;;;;;;;1.20;1.10;;;;;;;;;;4897464;29;20078;-81
2023/11/08 17:47:20;;;;;;;0.85;0.70;;;;;;;;;;4895058;29;20045;-82
2023/11/08 17:49:47;;;;;;;1.63;1.13;;;;;;;;;;4886275;29;20084;-82
2023/11/08 17:52:13;;;;;;;3.30;1.60;;;;;;;;;;4909395;29;20082;-84